Blue Horizon — WCX5096 — position and weather

sailwx.info

Track history (hours):
 
Tides and Currents Weather Stations Pressure Air Temp Water Temp Dewpoint Dewpoint Depression Visibility Wind Speed Wind Dir Waves Ship Positions

Blue Horizon

Owner: STRUNK, DANIEL R, REDONDO BEACH, CA. More information available from US FCC via Universal Licensing System and Coast Guard Vessel Documentation Center.

Last reported at 2017-Oct-29 06:54 UTC. Time now 2017-Nov-19 16:05 UTC.
Position N 33°45' W 118°09'.
Warning: this ship's position is 21 days out of date.

Type: Passenger vessel. MMSI: 367422040.

Date/timePositionNaut miles runAvg speedWind from/ knotsBaromVisibWave heightAir tempDewpointWater temp
2017-Oct-29 06:54N 33°45' W 118°09'0 0.2
2017-Oct-29 06:28N 33°45' W 118°09'0 0.5
2017-Oct-29 06:00N 33°45' W 118°10'3 4.3
2017-Oct-29 05:19N 33°44' W 118°13'1 0.6
2017-Oct-29 04:16N 33°44' W 118°13'0 0.3
2017-Oct-29 03:54N 33°45' W 118°13'  
2017-Oct-23 01:20N 33°46' W 118°12'0 0.1
2017-Oct-23 00:56N 33°46' W 118°12'2 5.7
2017-Oct-23 00:30N 33°43' W 118°11'4 9.0
2017-Oct-23 00:00N 33°41' W 118°15'5 9.2
2017-Oct-22 23:27N 33°38' W 118°21'7 9.1
2017-Oct-22 22:40N 33°34' W 118°28'2 9.2
2017-Oct-22 22:30N 33°33' W 118°29'4 9.0
2017-Oct-22 22:00N 33°31' W 118°34'4 7.9
2017-Oct-22 21:30N 33°28' W 118°37'0 0.1
2017-Oct-22 21:00N 33°28' W 118°37'0 0.3
2017-Oct-22 20:30N 33°28' W 118°37'0 0.1
2017-Oct-22 20:00N 33°28' W 118°37'0 0.2
2017-Oct-22 19:30N 33°28' W 118°37'0 0.0
2017-Oct-22 18:58N 33°28' W 118°37'0 0.2
2017-Oct-22 18:30N 33°28' W 118°37'0 0.1
2017-Oct-22 18:00N 33°28' W 118°37'6 6.3
2017-Oct-22 16:57N 33°31' W 118°31'14 9.3
2017-Oct-22 15:27N 33°39' W 118°17'5 9.4
2017-Oct-22 14:56N 33°41' W 118°12'3 7.8
2017-Oct-22 14:30N 33°44' W 118°08'1 2.8
2017-Oct-22 14:00N 33°44' W 118°10'2 0.4
2017-Oct-22 09:09N 33°46' W 118°12'0 0.0
2017-Oct-22 09:00N 33°46' W 118°12'0 0.8
2017-Oct-22 08:30N 33°45' W 118°11'2 1.8
2017-Oct-22 07:11N 33°43' W 118°10'1 1.0
2017-Oct-22 06:37N 33°44' W 118°11'1 8.2
2017-Oct-22 06:27N 33°42' W 118°12'4 9.0
2017-Oct-22 06:00N 33°41' W 118°16'5 9.2
2017-Oct-22 05:30N 33°39' W 118°21'5 9.0
2017-Oct-22 05:00N 33°36' W 118°25'4 8.9
2017-Oct-22 04:30N 33°33' W 118°29'4 9.0
2017-Oct-22 04:00N 33°31' W 118°34'3 5.5
2017-Oct-22 03:30N 33°29' W 118°36'1 0.3
2017-Oct-21 23:59N 33°28' W 118°37'0 0.2
2017-Oct-21 23:24N 33°28' W 118°37'0 0.4
2017-Oct-21 22:59N 33°28' W 118°37'1 1.2
2017-Oct-21 22:29N 33°28' W 118°37'19 8.7
2017-Oct-21 20:21N 33°39' W 118°18'4 9.0
2017-Oct-21 19:57N 33°41' W 118°15'4 8.8
2017-Oct-21 19:30N 33°43' W 118°11'2 4.7
2017-Oct-21 19:00N 33°46' W 118°12'0 0.0
2017-Oct-20 03:58N 33°46' W 118°12'2 4.3
2017-Oct-20 03:30N 33°44' W 118°11'55 8.9
2017-Oct-19 21:22N 32°50' W 118°21'0 0.4
2017-Oct-19 20:58N 32°50' W 118°21'4 0.4
2017-Oct-19 10:57N 32°52' W 118°17'4 8.4
2017-Oct-19 10:27N 32°57' W 118°16'4 8.4
2017-Oct-19 10:00N 33°00' W 118°15'8 8.8
2017-Oct-19 09:06N 33°08' W 118°15'2 8.8
2017-Oct-19 08:55N 33°10' W 118°14'5 8.6
2017-Oct-19 08:17N 33°15' W 118°14'2 8.7
2017-Oct-19 08:00N 33°18' W 118°14'4 8.7
2017-Oct-19 07:30N 33°22' W 118°13'5 8.6
2017-Oct-19 06:59N 33°26' W 118°12'  
Track history (hours):
 
Tides and Currents Weather Stations Pressure Air Temp Water Temp Dewpoint Dewpoint Depression Visibility Wind Speed Wind Dir Waves Ship Positions

Blue Horizon

Owner: STRUNK, DANIEL R, REDONDO BEACH, CA. More information available from US FCC via Universal Licensing System and Coast Guard Vessel Documentation Center.

Last reported at 2017-Oct-29 06:54 UTC. Time now 2017-Nov-19 16:05 UTC.
Position N 33°45' W 118°09'.
Warning: this ship's position is 21 days out of date.

Type: Passenger vessel. MMSI: 367422040.

Date/timePositionNaut miles runAvg speedWind from/ knotsBaromVisibWave heightAir tempDewpointWater temp
2017-Oct-29 06:54N 33°45' W 118°09'0 0.2
2017-Oct-29 06:28N 33°45' W 118°09'0 0.5
2017-Oct-29 06:00N 33°45' W 118°10'3 4.3
2017-Oct-29 05:19N 33°44' W 118°13'1 0.6
2017-Oct-29 04:16N 33°44' W 118°13'0 0.3
2017-Oct-29 03:54N 33°45' W 118°13'  
2017-Oct-23 01:20N 33°46' W 118°12'0 0.1
2017-Oct-23 00:56N 33°46' W 118°12'2 5.7
2017-Oct-23 00:30N 33°43' W 118°11'4 9.0
2017-Oct-23 00:00N 33°41' W 118°15'5 9.2
2017-Oct-22 23:27N 33°38' W 118°21'7 9.1
2017-Oct-22 22:40N 33°34' W 118°28'2 9.2
2017-Oct-22 22:30N 33°33' W 118°29'4 9.0
2017-Oct-22 22:00N 33°31' W 118°34'4 7.9
2017-Oct-22 21:30N 33°28' W 118°37'0 0.1
2017-Oct-22 21:00N 33°28' W 118°37'0 0.3
2017-Oct-22 20:30N 33°28' W 118°37'0 0.1
2017-Oct-22 20:00N 33°28' W 118°37'0 0.2
2017-Oct-22 19:30N 33°28' W 118°37'0 0.0
2017-Oct-22 18:58N 33°28' W 118°37'0 0.2
2017-Oct-22 18:30N 33°28' W 118°37'0 0.1
2017-Oct-22 18:00N 33°28' W 118°37'6 6.3
2017-Oct-22 16:57N 33°31' W 118°31'14 9.3
2017-Oct-22 15:27N 33°39' W 118°17'5 9.4
2017-Oct-22 14:56N 33°41' W 118°12'3 7.8
2017-Oct-22 14:30N 33°44' W 118°08'1 2.8
2017-Oct-22 14:00N 33°44' W 118°10'2 0.4
2017-Oct-22 09:09N 33°46' W 118°12'0 0.0
2017-Oct-22 09:00N 33°46' W 118°12'0 0.8
2017-Oct-22 08:30N 33°45' W 118°11'2 1.8
2017-Oct-22 07:11N 33°43' W 118°10'1 1.0
2017-Oct-22 06:37N 33°44' W 118°11'1 8.2
2017-Oct-22 06:27N 33°42' W 118°12'4 9.0
2017-Oct-22 06:00N 33°41' W 118°16'5 9.2
2017-Oct-22 05:30N 33°39' W 118°21'5 9.0
2017-Oct-22 05:00N 33°36' W 118°25'4 8.9
2017-Oct-22 04:30N 33°33' W 118°29'4 9.0
2017-Oct-22 04:00N 33°31' W 118°34'3 5.5
2017-Oct-22 03:30N 33°29' W 118°36'1 0.3
2017-Oct-21 23:59N 33°28' W 118°37'0 0.2
2017-Oct-21 23:24N 33°28' W 118°37'0 0.4
2017-Oct-21 22:59N 33°28' W 118°37'1 1.2
2017-Oct-21 22:29N 33°28' W 118°37'19 8.7
2017-Oct-21 20:21N 33°39' W 118°18'4 9.0
2017-Oct-21 19:57N 33°41' W 118°15'4 8.8
2017-Oct-21 19:30N 33°43' W 118°11'2 4.7
2017-Oct-21 19:00N 33°46' W 118°12'0 0.0
2017-Oct-20 03:58N 33°46' W 118°12'2 4.3
2017-Oct-20 03:30N 33°44' W 118°11'55 8.9
2017-Oct-19 21:22N 32°50' W 118°21'0 0.4
2017-Oct-19 20:58N 32°50' W 118°21'4 0.4
2017-Oct-19 10:57N 32°52' W 118°17'4 8.4
2017-Oct-19 10:27N 32°57' W 118°16'4 8.4
2017-Oct-19 10:00N 33°00' W 118°15'8 8.8
2017-Oct-19 09:06N 33°08' W 118°15'2 8.8
2017-Oct-19 08:55N 33°10' W 118°14'5 8.6
2017-Oct-19 08:17N 33°15' W 118°14'2 8.7
2017-Oct-19 08:00N 33°18' W 118°14'4 8.7
2017-Oct-19 07:30N 33°22' W 118°13'5 8.6
2017-Oct-19 06:59N 33°26' W 118°12'  

Dump ship's entire track history